sensor_id;sensor_type;location;lat;lon;timestamp;pressure;altitude;pressure_sealevel;temperature
23208;BMP180;11773;52.570;13.052;2023-02-28T00:00:13;102806.00;;;6.90
23208;BMP180;11773;52.570;13.052;2023-02-28T00:02:44;102802.00;;;6.90
23208;BMP180;11773;52.570;13.052;2023-02-28T00:05:17;102814.00;;;7.00
23208;BMP180;11773;52.570;13.052;2023-02-28T00:07:48;102816.00;;;7.00
23208;BMP180;11773;52.570;13.052;2023-02-28T00:10:22;102813.00;;;6.90
23208;BMP180;11773;52.570;13.052;2023-02-28T00:12:53;102811.00;;;7.00
23208;BMP180;11773;52.570;13.052;2023-02-28T00:15:24;102812.00;;;6.90
23208;BMP180;11773;52.570;13.052;2023-02-28T00:17:54;102814.00;;;7.00
23208;BMP180;11773;52.570;13.052;2023-02-28T00:20:24;102818.00;;;7.00
23208;BMP180;11773;52.570;13.052;2023-02-28T00:22:55;102811.00;;;6.90
23208;BMP180;11773;52.570;13.052;2023-02-28T00:25:26;102826.00;;;7.00
23208;BMP180;11773;52.570;13.052;2023-02-28T00:27:55;102808.00;;;6.90
23208;BMP180;11773;52.570;13.052;2023-02-28T00:30:24;102813.00;;;7.00
23208;BMP180;11773;52.570;13.052;2023-02-28T00:32:54;102805.00;;;7.00
23208;BMP180;11773;52.570;13.052;2023-02-28T00:35:23;102811.00;;;6.90
23208;BMP180;11773;52.570;13.052;2023-02-28T00:37:53;102812.00;;;7.00
23208;BMP180;11773;52.570;13.052;2023-02-28T00:40:22;102810.00;;;6.90
23208;BMP180;11773;52.570;13.052;2023-02-28T00:42:52;102813.00;;;6.90
23208;BMP180;11773;52.570;13.052;2023-02-28T00:45:21;102812.00;;;6.90
23208;BMP180;11773;52.570;13.052;2023-02-28T00:47:51;102811.00;;;6.90
23208;BMP180;11773;52.570;13.052;2023-02-28T00:50:20;102817.00;;;6.90
23208;BMP180;11773;52.570;13.052;2023-02-28T00:52:50;102808.00;;;6.80
23208;BMP180;11773;52.570;13.052;2023-02-28T00:55:19;102807.00;;;6.80
23208;BMP180;11773;52.570;13.052;2023-02-28T00:57:49;102817.00;;;6.80
23208;BMP180;11773;52.570;13.052;2023-02-28T01:00:19;102814.00;;;6.80
23208;BMP180;11773;52.570;13.052;2023-02-28T01:02:48;102813.00;;;6.80
23208;BMP180;11773;52.570;13.052;2023-02-28T01:05:18;102827.00;;;6.70
23208;BMP180;11773;52.570;13.052;2023-02-28T01:07:47;102831.00;;;6.70
23208;BMP180;11773;52.570;13.052;2023-02-28T01:10:17;102813.00;;;6.70
23208;BMP180;11773;52.570;13.052;2023-02-28T01:12:46;102828.00;;;6.70
23208;BMP180;11773;52.570;13.052;2023-02-28T01:15:16;102809.00;;;6.70
23208;BMP180;11773;52.570;13.052;2023-02-28T01:17:45;102824.00;;;6.70
23208;BMP180;11773;52.570;13.052;2023-02-28T01:20:15;102807.00;;;6.60
23208;BMP180;11773;52.570;13.052;2023-02-28T01:22:44;102811.00;;;6.60
23208;BMP180;11773;52.570;13.052;2023-02-28T01:25:14;102808.00;;;6.60
23208;BMP180;11773;52.570;13.052;2023-02-28T01:27:44;102812.00;;;6.60
23208;BMP180;11773;52.570;13.052;2023-02-28T01:30:13;102812.00;;;6.60
23208;BMP180;11773;52.570;13.052;2023-02-28T01:32:43;102797.00;;;6.60
23208;BMP180;11773;52.570;13.052;2023-02-28T01:35:12;102815.00;;;6.60
23208;BMP180;11773;52.570;13.052;2023-02-28T01:37:42;102789.00;;;6.60
23208;BMP180;11773;52.570;13.052;2023-02-28T01:40:12;102800.00;;;6.60
23208;BMP180;11773;52.570;13.052;2023-02-28T01:42:42;102797.00;;;6.60
23208;BMP180;11773;52.570;13.052;2023-02-28T01:45:30;102798.00;;;6.50
23208;BMP180;11773;52.570;13.052;2023-02-28T01:48:05;102799.00;;;6.50
23208;BMP180;11773;52.570;13.052;2023-02-28T01:50:41;102810.00;;;6.50
23208;BMP180;11773;52.570;13.052;2023-02-28T01:53:15;102791.00;;;6.40
23208;BMP180;11773;52.570;13.052;2023-02-28T01:55:48;102811.00;;;6.40
23208;BMP180;11773;52.570;13.052;2023-02-28T01:58:19;102798.00;;;6.40
23208;BMP180;11773;52.570;13.052;2023-02-28T02:00:49;102793.00;;;6.40
23208;BMP180;11773;52.570;13.052;2023-02-28T02:03:20;102799.00;;;6.40
23208;BMP180;11773;52.570;13.052;2023-02-28T02:05:50;102798.00;;;6.40
23208;BMP180;11773;52.570;13.052;2023-02-28T02:08:26;102798.00;;;6.40
23208;BMP180;11773;52.570;13.052;2023-02-28T02:11:00;102803.00;;;6.30
23208;BMP180;11773;52.570;13.052;2023-02-28T02:14:01;102794.00;;;6.30
23208;BMP180;11773;52.570;13.052;2023-02-28T02:16:49;102800.00;;;6.30
23208;BMP180;11773;52.570;13.052;2023-02-28T02:25:56;102798.00;;;6.00
23208;BMP180;11773;52.570;13.052;2023-02-28T02:28:41;102792.00;;;6.00
23208;BMP180;11773;52.570;13.052;2023-02-28T02:37:36;102804.00;;;5.90
23208;BMP180;11773;52.570;13.052;2023-02-28T02:40:23;102811.00;;;5.90
23208;BMP180;11773;52.570;13.052;2023-02-28T02:43:07;102801.00;;;5.90
23208;BMP180;11773;52.570;13.052;2023-02-28T02:45:59;102803.00;;;5.90
23208;BMP180;11773;52.570;13.052;2023-02-28T02:48:31;102793.00;;;5.90
23208;BMP180;11773;52.570;13.052;2023-02-28T02:51:06;102807.00;;;5.90
23208;BMP180;11773;52.570;13.052;2023-02-28T02:53:42;102802.00;;;5.90
23208;BMP180;11773;52.570;13.052;2023-02-28T02:56:14;102792.00;;;5.80
23208;BMP180;11773;52.570;13.052;2023-02-28T02:58:45;102800.00;;;5.80
23208;BMP180;11773;52.570;13.052;2023-02-28T03:01:20;102800.00;;;5.80
23208;BMP180;11773;52.570;13.052;2023-02-28T03:04:01;102798.00;;;5.80
23208;BMP180;11773;52.570;13.052;2023-02-28T03:06:30;102800.00;;;5.80
23208;BMP180;11773;52.570;13.052;2023-02-28T03:09:00;102801.00;;;5.70
23208;BMP180;11773;52.570;13.052;2023-02-28T03:11:31;102797.00;;;5.70
23208;BMP180;11773;52.570;13.052;2023-02-28T03:15:04;102806.00;;;5.70
23208;BMP180;11773;52.570;13.052;2023-02-28T03:17:02;102799.00;;;5.70
23208;BMP180;11773;52.570;13.052;2023-02-28T03:19:54;102807.00;;;5.60
23208;BMP180;11773;52.570;13.052;2023-02-28T03:22:45;102809.00;;;5.60
23208;BMP180;11773;52.570;13.052;2023-02-28T03:25:32;102803.00;;;5.60
23208;BMP180;11773;52.570;13.052;2023-02-28T03:28:06;102821.00;;;5.50
23208;BMP180;11773;52.570;13.052;2023-02-28T03:30:49;102802.00;;;5.50
23208;BMP180;11773;52.570;13.052;2023-02-28T03:33:33;102805.00;;;5.50
23208;BMP180;11773;52.570;13.052;2023-02-28T03:36:12;102808.00;;;5.40
23208;BMP180;11773;52.570;13.052;2023-02-28T03:38:52;102808.00;;;5.40
23208;BMP180;11773;52.570;13.052;2023-02-28T03:41:33;102806.00;;;5.40
23208;BMP180;11773;52.570;13.052;2023-02-28T03:44:15;102825.00;;;5.40
23208;BMP180;11773;52.570;13.052;2023-02-28T03:46:55;102813.00;;;5.30
23208;BMP180;11773;52.570;13.052;2023-02-28T03:49:32;102820.00;;;5.30
23208;BMP180;11773;52.570;13.052;2023-02-28T03:52:06;102818.00;;;5.30
23208;BMP180;11773;52.570;13.052;2023-02-28T03:54:43;102809.00;;;5.30
23208;BMP180;11773;52.570;13.052;2023-02-28T04:00:25;102821.00;;;5.20
23208;BMP180;11773;52.570;13.052;2023-02-28T04:02:54;102811.00;;;5.20
23208;BMP180;11773;52.570;13.052;2023-02-28T04:05:25;102823.00;;;5.20
23208;BMP180;11773;52.570;13.052;2023-02-28T04:08:05;102830.00;;;5.20
23208;BMP180;11773;52.570;13.052;2023-02-28T04:10:35;102825.00;;;5.10
23208;BMP180;11773;52.570;13.052;2023-02-28T04:13:04;102814.00;;;5.10
23208;BMP180;11773;52.570;13.052;2023-02-28T04:15:34;102812.00;;;5.10
23208;BMP180;11773;52.570;13.052;2023-02-28T04:18:03;102805.00;;;5.10
23208;BMP180;11773;52.570;13.052;2023-02-28T04:20:33;102817.00;;;5.10
23208;BMP180;11773;52.570;13.052;2023-02-28T04:23:02;102811.00;;;5.00
23208;BMP180;11773;52.570;13.052;2023-02-28T04:25:31;102822.00;;;5.00
23208;BMP180;11773;52.570;13.052;2023-02-28T04:28:01;102823.00;;;5.00
23208;BMP180;11773;52.570;13.052;2023-02-28T04:30:30;102809.00;;;4.90
23208;BMP180;11773;52.570;13.052;2023-02-28T04:33:01;102833.00;;;4.90
23208;BMP180;11773;52.570;13.052;2023-02-28T04:35:31;102821.00;;;4.90
23208;BMP180;11773;52.570;13.052;2023-02-28T04:38:00;102821.00;;;4.90
23208;BMP180;11773;52.570;13.052;2023-02-28T04:40:30;102830.00;;;4.90
23208;BMP180;11773;52.570;13.052;2023-02-28T04:42:59;102815.00;;;4.80
23208;BMP180;11773;52.570;13.052;2023-02-28T04:45:29;102812.00;;;4.80
23208;BMP180;11773;52.570;13.052;2023-02-28T04:48:00;102825.00;;;4.80
23208;BMP180;11773;52.570;13.052;2023-02-28T04:50:29;102817.00;;;4.80
23208;BMP180;11773;52.570;13.052;2023-02-28T04:52:59;102826.00;;;4.70
23208;BMP180;11773;52.570;13.052;2023-02-28T04:55:28;102835.00;;;4.70
23208;BMP180;11773;52.570;13.052;2023-02-28T04:57:58;102832.00;;;4.70
23208;BMP180;11773;52.570;13.052;2023-02-28T05:00:27;102831.00;;;4.70
23208;BMP180;11773;52.570;13.052;2023-02-28T05:02:57;102836.00;;;4.60
23208;BMP180;11773;52.570;13.052;2023-02-28T05:05:26;102829.00;;;4.60
23208;BMP180;11773;52.570;13.052;2023-02-28T05:07:55;102830.00;;;4.60
23208;BMP180;11773;52.570;13.052;2023-02-28T05:10:25;102831.00;;;4.60
23208;BMP180;11773;52.570;13.052;2023-02-28T05:12:54;102839.00;;;4.60
23208;BMP180;11773;52.570;13.052;2023-02-28T05:15:24;102834.00;;;4.50
23208;BMP180;11773;52.570;13.052;2023-02-28T05:17:54;102837.00;;;4.50
23208;BMP180;11773;52.570;13.052;2023-02-28T05:20:23;102834.00;;;4.40
23208;BMP180;11773;52.570;13.052;2023-02-28T05:22:53;102840.00;;;4.50
23208;BMP180;11773;52.570;13.052;2023-02-28T05:25:22;102842.00;;;4.40
23208;BMP180;11773;52.570;13.052;2023-02-28T05:27:52;102828.00;;;4.40
23208;BMP180;11773;52.570;13.052;2023-02-28T05:30:21;102840.00;;;4.40
23208;BMP180;11773;52.570;13.052;2023-02-28T05:32:51;102838.00;;;4.40
23208;BMP180;11773;52.570;13.052;2023-02-28T05:35:21;102839.00;;;4.40
23208;BMP180;11773;52.570;13.052;2023-02-28T05:37:50;102840.00;;;4.40
23208;BMP180;11773;52.570;13.052;2023-02-28T05:40:20;102849.00;;;4.40
23208;BMP180;11773;52.570;13.052;2023-02-28T05:42:51;102841.00;;;4.40
23208;BMP180;11773;52.570;13.052;2023-02-28T05:45:21;102849.00;;;4.40
23208;BMP180;11773;52.570;13.052;2023-02-28T05:47:54;102859.00;;;4.30
23208;BMP180;11773;52.570;13.052;2023-02-28T05:50:24;102855.00;;;4.30
23208;BMP180;11773;52.570;13.052;2023-02-28T05:52:53;102855.00;;;4.30
23208;BMP180;11773;52.570;13.052;2023-02-28T05:55:23;102854.00;;;4.30
23208;BMP180;11773;52.570;13.052;2023-02-28T05:57:52;102855.00;;;4.30
23208;BMP180;11773;52.570;13.052;2023-02-28T06:00:23;102863.00;;;4.20
23208;BMP180;11773;52.570;13.052;2023-02-28T06:02:52;102855.00;;;4.20
23208;BMP180;11773;52.570;13.052;2023-02-28T06:05:24;102863.00;;;4.20
23208;BMP180;11773;52.570;13.052;2023-02-28T06:07:53;102871.00;;;4.20
23208;BMP180;11773;52.570;13.052;2023-02-28T06:10:23;102857.00;;;4.20
23208;BMP180;11773;52.570;13.052;2023-02-28T06:12:52;102865.00;;;4.20
23208;BMP180;11773;52.570;13.052;2023-02-28T06:15:21;102860.00;;;4.20
23208;BMP180;11773;52.570;13.052;2023-02-28T06:17:51;102868.00;;;4.10
23208;BMP180;11773;52.570;13.052;2023-02-28T06:20:20;102864.00;;;4.10
23208;BMP180;11773;52.570;13.052;2023-02-28T06:22:50;102872.00;;;4.10
23208;BMP180;11773;52.570;13.052;2023-02-28T06:25:20;102871.00;;;4.10
23208;BMP180;11773;52.570;13.052;2023-02-28T06:27:49;102870.00;;;4.10
23208;BMP180;11773;52.570;13.052;2023-02-28T06:30:19;102879.00;;;4.10
23208;BMP180;11773;52.570;13.052;2023-02-28T06:32:50;102895.00;;;4.10
23208;BMP180;11773;52.570;13.052;2023-02-28T06:35:20;102876.00;;;4.10
23208;BMP180;11773;52.570;13.052;2023-02-28T06:37:50;102887.00;;;4.20
23208;BMP180;11773;52.570;13.052;2023-02-28T06:40:19;102902.00;;;4.20
23208;BMP180;11773;52.570;13.052;2023-02-28T06:42:48;102888.00;;;4.30
23208;BMP180;11773;52.570;13.052;2023-02-28T06:45:18;102897.00;;;4.30
23208;BMP180;11773;52.570;13.052;2023-02-28T06:47:47;102891.00;;;4.40
23208;BMP180;11773;52.570;13.052;2023-02-28T06:50:18;102907.00;;;4.50
23208;BMP180;11773;52.570;13.052;2023-02-28T06:52:48;102890.00;;;4.60
23208;BMP180;11773;52.570;13.052;2023-02-28T06:55:19;102904.00;;;4.70
23208;BMP180;11773;52.570;13.052;2023-02-28T06:57:49;102897.00;;;4.80
23208;BMP180;11773;52.570;13.052;2023-02-28T07:00:19;102905.00;;;5.00
23208;BMP180;11773;52.570;13.052;2023-02-28T07:02:48;102905.00;;;5.10
23208;BMP180;11773;52.570;13.052;2023-02-28T07:05:18;102912.00;;;5.20
23208;BMP180;11773;52.570;13.052;2023-02-28T07:07:47;102914.00;;;5.30
23208;BMP180;11773;52.570;13.052;2023-02-28T07:10:17;102930.00;;;5.40
23208;BMP180;11773;52.570;13.052;2023-02-28T07:12:47;102917.00;;;5.50
23208;BMP180;11773;52.570;13.052;2023-02-28T07:15:17;102925.00;;;5.50
23208;BMP180;11773;52.570;13.052;2023-02-28T07:17:46;102927.00;;;5.60
23208;BMP180;11773;52.570;13.052;2023-02-28T07:20:16;102915.00;;;5.60
23208;BMP180;11773;52.570;13.052;2023-02-28T07:22:45;102917.00;;;5.60
23208;BMP180;11773;52.570;13.052;2023-02-28T07:25:16;102923.00;;;5.60
23208;BMP180;11773;52.570;13.052;2023-02-28T07:27:46;102920.00;;;5.60
23208;BMP180;11773;52.570;13.052;2023-02-28T07:30:16;102938.00;;;5.60
23208;BMP180;11773;52.570;13.052;2023-02-28T07:32:46;102915.00;;;5.60
23208;BMP180;11773;52.570;13.052;2023-02-28T07:35:15;102932.00;;;5.60
23208;BMP180;11773;52.570;13.052;2023-02-28T07:37:45;102922.00;;;5.60
23208;BMP180;11773;52.570;13.052;2023-02-28T07:40:15;102926.00;;;5.60
23208;BMP180;11773;52.570;13.052;2023-02-28T07:42:46;102923.00;;;5.60
23208;BMP180;11773;52.570;13.052;2023-02-28T07:45:15;102927.00;;;5.60
23208;BMP180;11773;52.570;13.052;2023-02-28T07:47:45;102925.00;;;5.60
23208;BMP180;11773;52.570;13.052;2023-02-28T07:50:16;102922.00;;;5.70
23208;BMP180;11773;52.570;13.052;2023-02-28T07:52:45;102922.00;;;5.70
23208;BMP180;11773;52.570;13.052;2023-02-28T07:55:15;102919.00;;;5.70
23208;BMP180;11773;52.570;13.052;2023-02-28T07:57:45;102928.00;;;5.70
23208;BMP180;11773;52.570;13.052;2023-02-28T08:00:14;102925.00;;;5.80
23208;BMP180;11773;52.570;13.052;2023-02-28T08:02:44;102928.00;;;5.80
23208;BMP180;11773;52.570;13.052;2023-02-28T08:05:13;102930.00;;;5.80
23208;BMP180;11773;52.570;13.052;2023-02-28T08:07:43;102943.00;;;5.90
23208;BMP180;11773;52.570;13.052;2023-02-28T08:10:12;102926.00;;;5.90
23208;BMP180;11773;52.570;13.052;2023-02-28T08:12:42;102941.00;;;5.90
23208;BMP180;11773;52.570;13.052;2023-02-28T08:15:11;102924.00;;;6.00
23208;BMP180;11773;52.570;13.052;2023-02-28T08:17:41;102927.00;;;6.00
23208;BMP180;11773;52.570;13.052;2023-02-28T08:20:11;102921.00;;;6.00
23208;BMP180;11773;52.570;13.052;2023-02-28T08:22:41;102918.00;;;6.10
23208;BMP180;11773;52.570;13.052;2023-02-28T08:25:13;102919.00;;;6.10
23208;BMP180;11773;52.570;13.052;2023-02-28T08:27:42;102931.00;;;6.10
23208;BMP180;11773;52.570;13.052;2023-02-28T08:30:14;102925.00;;;6.20
23208;BMP180;11773;52.570;13.052;2023-02-28T08:32:44;102916.00;;;6.30
23208;BMP180;11773;52.570;13.052;2023-02-28T08:35:14;102923.00;;;6.30
23208;BMP180;11773;52.570;13.052;2023-02-28T08:37:44;102922.00;;;6.30
23208;BMP180;11773;52.570;13.052;2023-02-28T08:40:13;102922.00;;;6.40
23208;BMP180;11773;52.570;13.052;2023-02-28T08:42:46;102931.00;;;6.40
23208;BMP180;11773;52.570;13.052;2023-02-28T08:45:15;102925.00;;;6.50
23208;BMP180;11773;52.570;13.052;2023-02-28T08:47:45;102934.00;;;6.50
23208;BMP180;11773;52.570;13.052;2023-02-28T08:50:14;102920.00;;;6.50
23208;BMP180;11773;52.570;13.052;2023-02-28T08:52:45;102930.00;;;6.60
23208;BMP180;11773;52.570;13.052;2023-02-28T08:55:14;102927.00;;;6.70
23208;BMP180;11773;52.570;13.052;2023-02-28T08:57:43;102923.00;;;6.70
23208;BMP180;11773;52.570;13.052;2023-02-28T09:00:13;102928.00;;;6.80
23208;BMP180;11773;52.570;13.052;2023-02-28T09:02:43;102923.00;;;6.80
23208;BMP180;11773;52.570;13.052;2023-02-28T09:05:12;102937.00;;;6.90
23208;BMP180;11773;52.570;13.052;2023-02-28T09:07:42;102924.00;;;7.00
23208;BMP180;11773;52.570;13.052;2023-02-28T09:10:11;102929.00;;;7.00
23208;BMP180;11773;52.570;13.052;2023-02-28T09:12:41;102946.00;;;7.10
23208;BMP180;11773;52.570;13.052;2023-02-28T09:15:11;102932.00;;;7.20
23208;BMP180;11773;52.570;13.052;2023-02-28T09:17:40;102937.00;;;7.20
23208;BMP180;11773;52.570;13.052;2023-02-28T09:20:12;102931.00;;;7.30
23208;BMP180;11773;52.570;13.052;2023-02-28T09:22:42;102925.00;;;7.40
23208;BMP180;11773;52.570;13.052;2023-02-28T09:25:11;102940.00;;;7.40
23208;BMP180;11773;52.570;13.052;2023-02-28T09:27:41;102923.00;;;7.50
23208;BMP180;11773;52.570;13.052;2023-02-28T09:30:11;102927.00;;;7.60
23208;BMP180;11773;52.570;13.052;2023-02-28T09:32:41;102933.00;;;7.70
23208;BMP180;11773;52.570;13.052;2023-02-28T09:35:10;102929.00;;;7.70
23208;BMP180;11773;52.570;13.052;2023-02-28T09:37:41;102930.00;;;7.80
23208;BMP180;11773;52.570;13.052;2023-02-28T09:40:12;102919.00;;;7.80
23208;BMP180;11773;52.570;13.052;2023-02-28T09:42:42;102923.00;;;7.90
23208;BMP180;11773;52.570;13.052;2023-02-28T09:45:29;102926.00;;;8.00
23208;BMP180;11773;52.570;13.052;2023-02-28T09:48:17;102934.00;;;8.00
23208;BMP180;11773;52.570;13.052;2023-02-28T09:50:51;102934.00;;;8.00
23208;BMP180;11773;52.570;13.052;2023-02-28T09:53:35;102933.00;;;8.10
23208;BMP180;11773;52.570;13.052;2023-02-28T09:56:19;102934.00;;;8.10
23208;BMP180;11773;52.570;13.052;2023-02-28T09:59:14;102945.00;;;8.20
23208;BMP180;11773;52.570;13.052;2023-02-28T10:05:04;102930.00;;;8.30
23208;BMP180;11773;52.570;13.052;2023-02-28T10:08:13;102931.00;;;8.30
23208;BMP180;11773;52.570;13.052;2023-02-28T10:10:49;102931.00;;;8.40
23208;BMP180;11773;52.570;13.052;2023-02-28T10:13:34;102935.00;;;8.40
23208;BMP180;11773;52.570;13.052;2023-02-28T10:16:25;102928.00;;;8.40
23208;BMP180;11773;52.570;13.052;2023-02-28T10:21:40;102929.00;;;8.50
23208;BMP180;11773;52.570;13.052;2023-02-28T10:27:24;102935.00;;;8.60
23208;BMP180;11773;52.570;13.052;2023-02-28T10:29:56;102926.00;;;8.60
23208;BMP180;11773;52.570;13.052;2023-02-28T10:32:35;102934.00;;;8.70
23208;BMP180;11773;52.570;13.052;2023-02-28T10:35:19;102934.00;;;8.70
23208;BMP180;11773;52.570;13.052;2023-02-28T10:37:55;102931.00;;;8.80
23208;BMP180;11773;52.570;13.052;2023-02-28T10:40:28;102932.00;;;8.80
23208;BMP180;11773;52.570;13.052;2023-02-28T10:43:03;102926.00;;;8.90
23208;BMP180;11773;52.570;13.052;2023-02-28T10:45:35;102926.00;;;8.90
23208;BMP180;11773;52.570;13.052;2023-02-28T10:50:51;102931.00;;;9.00
23208;BMP180;11773;52.570;13.052;2023-02-28T10:53:45;102935.00;;;9.10
23208;BMP180;11773;52.570;13.052;2023-02-28T10:56:23;102929.00;;;9.10
23208;BMP180;11773;52.570;13.052;2023-02-28T10:59:28;102923.00;;;9.20
23208;BMP180;11773;52.570;13.052;2023-02-28T11:01:58;102930.00;;;9.20
23208;BMP180;11773;52.570;13.052;2023-02-28T11:04:35;102929.00;;;9.30
23208;BMP180;11773;52.570;13.052;2023-02-28T11:07:25;102921.00;;;9.30
23208;BMP180;11773;52.570;13.052;2023-02-28T11:09:58;102909.00;;;9.30
23208;BMP180;11773;52.570;13.052;2023-02-28T11:12:33;102901.00;;;9.40
23208;BMP180;11773;52.570;13.052;2023-02-28T11:18:32;102901.00;;;9.50
23208;BMP180;11773;52.570;13.052;2023-02-28T11:20:59;102902.00;;;9.50
23208;BMP180;11773;52.570;13.052;2023-02-28T11:23:33;102903.00;;;9.60
23208;BMP180;11773;52.570;13.052;2023-02-28T11:26:05;102895.00;;;9.70
23208;BMP180;11773;52.570;13.052;2023-02-28T11:28:40;102888.00;;;9.70
23208;BMP180;11773;52.570;13.052;2023-02-28T11:31:17;102891.00;;;9.80
23208;BMP180;11773;52.570;13.052;2023-02-28T11:33:55;102884.00;;;9.80
23208;BMP180;11773;52.570;13.052;2023-02-28T11:36:31;102905.00;;;9.80
23208;BMP180;11773;52.570;13.052;2023-02-28T11:39:12;102870.00;;;9.90
23208;BMP180;11773;52.570;13.052;2023-02-28T11:42:11;102866.00;;;9.90
23208;BMP180;11773;52.570;13.052;2023-02-28T11:44:56;102870.00;;;9.90
23208;BMP180;11773;52.570;13.052;2023-02-28T11:50:42;102876.00;;;9.90
23208;BMP180;11773;52.570;13.052;2023-02-28T12:02:37;102882.00;;;10.00
23208;BMP180;11773;52.570;13.052;2023-02-28T12:05:29;102882.00;;;10.00
23208;BMP180;11773;52.570;13.052;2023-02-28T12:14:25;102872.00;;;10.10
23208;BMP180;11773;52.570;13.052;2023-02-28T12:17:05;102864.00;;;10.10
23208;BMP180;11773;52.570;13.052;2023-02-28T12:20:02;102863.00;;;10.20
23208;BMP180;11773;52.570;13.052;2023-02-28T12:22:39;102877.00;;;10.20
23208;BMP180;11773;52.570;13.052;2023-02-28T12:28:14;102879.00;;;10.20
23208;BMP180;11773;52.570;13.052;2023-02-28T12:30:53;102862.00;;;10.30
23208;BMP180;11773;52.570;13.052;2023-02-28T12:33:24;102860.00;;;10.30
23208;BMP180;11773;52.570;13.052;2023-02-28T12:36:04;102863.00;;;10.30
23208;BMP180;11773;52.570;13.052;2023-02-28T12:38:48;102860.00;;;10.40
23208;BMP180;11773;52.570;13.052;2023-02-28T12:41:16;102846.00;;;10.40
23208;BMP180;11773;52.570;13.052;2023-02-28T12:43:57;102832.00;;;10.40
23208;BMP180;11773;52.570;13.052;2023-02-28T12:46:33;102836.00;;;10.40
23208;BMP180;11773;52.570;13.052;2023-02-28T12:49:10;102830.00;;;10.40
23208;BMP180;11773;52.570;13.052;2023-02-28T12:51:41;102822.00;;;10.40
23208;BMP180;11773;52.570;13.052;2023-02-28T12:54:30;102830.00;;;10.40
23208;BMP180;11773;52.570;13.052;2023-02-28T12:57:32;102816.00;;;10.40
23208;BMP180;11773;52.570;13.052;2023-02-28T13:00:08;102819.00;;;10.40
23208;BMP180;11773;52.570;13.052;2023-02-28T13:06:10;102811.00;;;10.40
23208;BMP180;11773;52.570;13.052;2023-02-28T13:08:59;102804.00;;;10.40
23208;BMP180;11773;52.570;13.052;2023-02-28T13:11:38;102796.00;;;10.40
23208;BMP180;11773;52.570;13.052;2023-02-28T13:14:26;102796.00;;;10.40
23208;BMP180;11773;52.570;13.052;2023-02-28T13:20:33;102805.00;;;10.40
23208;BMP180;11773;52.570;13.052;2023-02-28T13:24:57;102802.00;;;10.50
23208;BMP180;11773;52.570;13.052;2023-02-28T13:27:39;102814.00;;;10.50
23208;BMP180;11773;52.570;13.052;2023-02-28T13:33:31;102802.00;;;10.50
23208;BMP180;11773;52.570;13.052;2023-02-28T13:38:56;102803.00;;;10.50
23208;BMP180;11773;52.570;13.052;2023-02-28T13:44:24;102796.00;;;10.60
23208;BMP180;11773;52.570;13.052;2023-02-28T13:49:30;102785.00;;;10.60
23208;BMP180;11773;52.570;13.052;2023-02-28T13:52:18;102783.00;;;10.70
23208;BMP180;11773;52.570;13.052;2023-02-28T13:55:15;102784.00;;;10.70
23208;BMP180;11773;52.570;13.052;2023-02-28T14:01:16;102775.00;;;10.60
23208;BMP180;11773;52.570;13.052;2023-02-28T14:04:24;102776.00;;;10.70
23208;BMP180;11773;52.570;13.052;2023-02-28T14:06:55;102781.00;;;10.70
23208;BMP180;11773;52.570;13.052;2023-02-28T14:09:37;102776.00;;;10.60
23208;BMP180;11773;52.570;13.052;2023-02-28T14:13:00;102777.00;;;10.70
23208;BMP180;11773;52.570;13.052;2023-02-28T14:15:57;102779.00;;;10.50
23208;BMP180;11773;52.570;13.052;2023-02-28T14:18:36;102789.00;;;10.60
23208;BMP180;11773;52.570;13.052;2023-02-28T14:21:29;102797.00;;;10.50
23208;BMP180;11773;52.570;13.052;2023-02-28T14:24:42;102779.00;;;10.60
23208;BMP180;11773;52.570;13.052;2023-02-28T14:27:35;102777.00;;;10.50
23208;BMP180;11773;52.570;13.052;2023-02-28T14:36:18;102768.00;;;10.40
23208;BMP180;11773;52.570;13.052;2023-02-28T14:39:00;102773.00;;;10.40
23208;BMP180;11773;52.570;13.052;2023-02-28T14:41:38;102772.00;;;10.50
23208;BMP180;11773;52.570;13.052;2023-02-28T14:44:24;102772.00;;;10.50
23208;BMP180;11773;52.570;13.052;2023-02-28T14:46:57;102766.00;;;10.50
23208;BMP180;11773;52.570;13.052;2023-02-28T14:49:29;102776.00;;;10.50
23208;BMP180;11773;52.570;13.052;2023-02-28T14:52:30;102769.00;;;10.50
23208;BMP180;11773;52.570;13.052;2023-02-28T14:55:05;102763.00;;;10.50
23208;BMP180;11773;52.570;13.052;2023-02-28T14:57:38;102764.00;;;10.60
23208;BMP180;11773;52.570;13.052;2023-02-28T15:00:23;102755.00;;;10.60
23208;BMP180;11773;52.570;13.052;2023-02-28T15:02:53;102759.00;;;10.60
23208;BMP180;11773;52.570;13.052;2023-02-28T15:05:34;102764.00;;;10.70
23208;BMP180;11773;52.570;13.052;2023-02-28T15:08:16;102771.00;;;10.70
23208;BMP180;11773;52.570;13.052;2023-02-28T15:13:44;102752.00;;;10.70
23208;BMP180;11773;52.570;13.052;2023-02-28T15:16:38;102754.00;;;10.60
23208;BMP180;11773;52.570;13.052;2023-02-28T15:19:20;102762.00;;;10.60
23208;BMP180;11773;52.570;13.052;2023-02-28T15:21:59;102749.00;;;10.60
23208;BMP180;11773;52.570;13.052;2023-02-28T15:24:48;102754.00;;;10.60
23208;BMP180;11773;52.570;13.052;2023-02-28T15:27:31;102762.00;;;10.60
23208;BMP180;11773;52.570;13.052;2023-02-28T15:30:08;102756.00;;;10.60
23208;BMP180;11773;52.570;13.052;2023-02-28T15:32:39;102761.00;;;10.60
23208;BMP180;11773;52.570;13.052;2023-02-28T15:38:02;102747.00;;;10.60
23208;BMP180;11773;52.570;13.052;2023-02-28T15:40:45;102748.00;;;10.60
23208;BMP180;11773;52.570;13.052;2023-02-28T15:43:32;102752.00;;;10.60
23208;BMP180;11773;52.570;13.052;2023-02-28T15:46:08;102746.00;;;10.60
23208;BMP180;11773;52.570;13.052;2023-02-28T15:48:50;102745.00;;;10.60
23208;BMP180;11773;52.570;13.052;2023-02-28T15:51:29;102740.00;;;10.60
23208;BMP180;11773;52.570;13.052;2023-02-28T15:54:06;102745.00;;;10.60
23208;BMP180;11773;52.570;13.052;2023-02-28T15:56:38;102757.00;;;10.60
23208;BMP180;11773;52.570;13.052;2023-02-28T15:59:12;102751.00;;;10.60
23208;BMP180;11773;52.570;13.052;2023-02-28T16:01:40;102750.00;;;10.60
23208;BMP180;11773;52.570;13.052;2023-02-28T16:04:19;102750.00;;;10.60